LRCT - CAMPIA TURZII

Compiled: 21:30:09 on 19/01/2018

Latest METAR/SPECI Reports

METAR LRCT 192100Z 15010KT 6000 -RA OVC050 03/00 Q1009 WHT WHT=

Previous reports

METAR LRCT 192000Z 22009KT 9999 OVC060 03/01 Q1009 BLU BLU=
METAR LRCT 191900Z 22004KT 9999 OVC050 03/01 Q1009 BLU BLU=
METAR LRCT 191800Z 09005KT 9999 OVC100 02/00 Q1009 BLU BLU=
METAR LRCT 191700Z 09005KT 9999 OVC100 01/M00 Q1009 BLU BLU=

Latest TAF report

TAF LRCT 191700Z 1918/2018 15010KT 9999 OVC080 TEMPO 1920/2000 3000 RASN BR BKN015 OVC030=

Valid WARNINGS

No valid warnings for LRCT